sensor_id;sensor_type;location;lat;lon;timestamp;pressure;altitude;pressure_sealevel;temperature;humidity
71956;BME280;59829;50.562;6.258;2023-08-24T00:01:42;96086.03;;;18.79;97.87
71956;BME280;59829;50.562;6.258;2023-08-24T00:11:42;96084.13;;;18.65;97.63
71956;BME280;59829;50.562;6.258;2023-08-24T00:21:42;96075.03;;;18.53;97.84
71956;BME280;59829;50.562;6.258;2023-08-24T00:31:43;96084.44;;;18.46;98.12
71956;BME280;59829;50.562;6.258;2023-08-24T00:41:43;96095.78;;;18.36;98.37
71956;BME280;59829;50.562;6.258;2023-08-24T00:51:45;96071.31;;;18.47;99.51
71956;BME280;59829;50.562;6.258;2023-08-24T01:01:46;96066.97;;;18.31;99.47
71956;BME280;59829;50.562;6.258;2023-08-24T01:12:19;96056.28;;;18.26;99.63
71956;BME280;59829;50.562;6.258;2023-08-24T01:22:31;96057.56;;;18.22;99.53
71956;BME280;59829;50.562;6.258;2023-08-24T01:32:33;96030.66;;;18.15;99.95
71956;BME280;59829;50.562;6.258;2023-08-24T01:42:35;96009.44;;;18.12;100.00
71956;BME280;59829;50.562;6.258;2023-08-24T01:52:37;95992.41;;;18.17;100.00
71956;BME280;59829;50.562;6.258;2023-08-24T02:02:37;95984.63;;;18.17;100.00
71956;BME280;59829;50.562;6.258;2023-08-24T02:12:38;95964.53;;;18.19;100.00
71956;BME280;59829;50.562;6.258;2023-08-24T02:22:38;95956.13;;;18.17;100.00
71956;BME280;59829;50.562;6.258;2023-08-24T02:32:39;95947.69;;;18.15;100.00
71956;BME280;59829;50.562;6.258;2023-08-24T02:42:39;95959.69;;;18.16;100.00
71956;BME280;59829;50.562;6.258;2023-08-24T02:52:39;95959.69;;;18.16;100.00
71956;BME280;59829;50.562;6.258;2023-08-24T03:02:40;96000.22;;;18.09;100.00
71956;BME280;59829;50.562;6.258;2023-08-24T03:12:40;96038.75;;;18.04;100.00
71956;BME280;59829;50.562;6.258;2023-08-24T03:22:40;96076.19;;;18.01;100.00
71956;BME280;59829;50.562;6.258;2023-08-24T03:32:40;96050.75;;;18.13;100.00
71956;BME280;59829;50.562;6.258;2023-08-24T03:42:41;96052.41;;;18.22;100.00
71956;BME280;59829;50.562;6.258;2023-08-24T03:52:42;96054.97;;;18.30;100.00
71956;BME280;59829;50.562;6.258;2023-08-24T04:02:43;96052.69;;;18.35;100.00
71956;BME280;59829;50.562;6.258;2023-08-24T04:12:43;96023.19;;;18.36;100.00
71956;BME280;59829;50.562;6.258;2023-08-24T04:22:43;95985.72;;;18.39;100.00
71956;BME280;59829;50.562;6.258;2023-08-24T04:32:44;95894.72;;;18.57;100.00
71956;BME280;59829;50.562;6.258;2023-08-24T04:42:44;95895.97;;;18.77;100.00
71956;BME280;59829;50.562;6.258;2023-08-24T04:52:44;95896.53;;;18.87;100.00
71956;BME280;59829;50.562;6.258;2023-08-24T05:02:44;95880.47;;;18.92;100.00
71956;BME280;59829;50.562;6.258;2023-08-24T05:12:45;95898.78;;;18.90;100.00
71956;BME280;59829;50.562;6.258;2023-08-24T05:22:45;95861.16;;;18.94;100.00
71956;BME280;59829;50.562;6.258;2023-08-24T05:32:45;95843.59;;;18.96;100.00
71956;BME280;59829;50.562;6.258;2023-08-24T05:42:46;95851.06;;;18.91;100.00
71956;BME280;59829;50.562;6.258;2023-08-24T05:52:46;95847.56;;;18.84;100.00
71956;BME280;59829;50.562;6.258;2023-08-24T06:02:46;95850.97;;;18.85;100.00
71956;BME280;59829;50.562;6.258;2023-08-24T06:12:47;95838.16;;;18.83;100.00
71956;BME280;59829;50.562;6.258;2023-08-24T06:22:47;95807.63;;;18.93;100.00
71956;BME280;59829;50.562;6.258;2023-08-24T06:32:47;95787.03;;;19.07;100.00
71956;BME280;59829;50.562;6.258;2023-08-24T06:42:47;95788.88;;;19.21;100.00
71956;BME280;59829;50.562;6.258;2023-08-24T06:52:48;95779.88;;;19.46;100.00
71956;BME280;59829;50.562;6.258;2023-08-24T07:02:49;95779.72;;;19.77;100.00
71956;BME280;59829;50.562;6.258;2023-08-24T07:12:49;95786.47;;;20.01;100.00
71956;BME280;59829;50.562;6.258;2023-08-24T07:22:50;95764.53;;;20.25;100.00
71956;BME280;59829;50.562;6.258;2023-08-24T07:32:50;95741.97;;;20.47;100.00
71956;BME280;59829;50.562;6.258;2023-08-24T07:42:52;95732.75;;;20.66;100.00
71956;BME280;59829;50.562;6.258;2023-08-24T07:52:54;95753.75;;;20.86;100.00
71956;BME280;59829;50.562;6.258;2023-08-24T08:02:56;95738.88;;;21.01;100.00
71956;BME280;59829;50.562;6.258;2023-08-24T08:12:56;95731.41;;;21.19;100.00
71956;BME280;59829;50.562;6.258;2023-08-24T08:22:56;95730.38;;;21.42;100.00
71956;BME280;59829;50.562;6.258;2023-08-24T08:32:57;95738.72;;;21.65;100.00
71956;BME280;59829;50.562;6.258;2023-08-24T08:42:58;95723.97;;;21.85;100.00
71956;BME280;59829;50.562;6.258;2023-08-24T08:52:58;95714.00;;;22.02;100.00
71956;BME280;59829;50.562;6.258;2023-08-24T09:02:59;95692.25;;;22.23;100.00
71956;BME280;59829;50.562;6.258;2023-08-24T09:13:00;95643.09;;;22.46;100.00
71956;BME280;59829;50.562;6.258;2023-08-24T09:23:00;95651.94;;;22.65;100.00
71956;BME280;59829;50.562;6.258;2023-08-24T09:33:09;95685.72;;;22.93;100.00
71956;BME280;59829;50.562;6.258;2023-08-24T09:43:12;95670.81;;;23.07;100.00
71956;BME280;59829;50.562;6.258;2023-08-24T09:53:23;95697.72;;;23.21;98.61
71956;BME280;59829;50.562;6.258;2023-08-24T10:03:27;95701.94;;;23.28;96.51
71956;BME280;59829;50.562;6.258;2023-08-24T10:13:42;95709.38;;;23.31;94.56
71956;BME280;59829;50.562;6.258;2023-08-24T10:23:45;95725.66;;;23.33;93.12
71956;BME280;59829;50.562;6.258;2023-08-24T10:33:46;95724.06;;;23.26;92.32
71956;BME280;59829;50.562;6.258;2023-08-24T10:43:48;95741.34;;;23.20;91.57
71956;BME280;59829;50.562;6.258;2023-08-24T10:54:01;95730.72;;;23.08;91.13
71956;BME280;59829;50.562;6.258;2023-08-24T11:04:05;95719.44;;;23.01;91.14
71956;BME280;59829;50.562;6.258;2023-08-24T11:14:22;95763.88;;;22.95;90.95
71956;BME280;59829;50.562;6.258;2023-08-24T11:24:22;95872.53;;;22.82;91.25
71956;BME280;59829;50.562;6.258;2023-08-24T11:34:23;95896.09;;;22.48;90.53
71956;BME280;59829;50.562;6.258;2023-08-24T11:44:23;95901.50;;;22.12;91.35
71956;BME280;59829;50.562;6.258;2023-08-24T11:54:24;95876.81;;;21.86;93.01
71956;BME280;59829;50.562;6.258;2023-08-24T12:04:24;95833.84;;;21.76;95.26
71956;BME280;59829;50.562;6.258;2023-08-24T12:48:39;95628.94;;;21.40;100.00
71956;BME280;59829;50.562;6.258;2023-08-24T12:58:39;95625.66;;;21.31;100.00
71956;BME280;59829;50.562;6.258;2023-08-24T13:08:40;95640.28;;;21.26;100.00
71956;BME280;59829;50.562;6.258;2023-08-24T13:18:40;95617.38;;;21.21;100.00
71956;BME280;59829;50.562;6.258;2023-08-24T13:28:40;95609.09;;;21.11;100.00
71956;BME280;59829;50.562;6.258;2023-08-24T13:38:41;95684.81;;;21.10;100.00
71956;BME280;59829;50.562;6.258;2023-08-24T13:48:41;95709.84;;;21.04;100.00
71956;BME280;59829;50.562;6.258;2023-08-24T13:58:41;95731.19;;;20.93;100.00
71956;BME280;59829;50.562;6.258;2023-08-24T14:08:41;95765.78;;;20.87;100.00
71956;BME280;59829;50.562;6.258;2023-08-24T14:18:42;95760.50;;;20.80;100.00
71956;BME280;59829;50.562;6.258;2023-08-24T14:28:52;95701.56;;;20.72;100.00
71956;BME280;59829;50.562;6.258;2023-08-24T14:38:57;95714.69;;;20.64;100.00
71956;BME280;59829;50.562;6.258;2023-08-24T14:48:58;95753.63;;;20.72;100.00
71956;BME280;59829;50.562;6.258;2023-08-24T14:58:58;95766.41;;;20.67;100.00
71956;BME280;59829;50.562;6.258;2023-08-24T15:08:58;95763.13;;;20.59;100.00
71956;BME280;59829;50.562;6.258;2023-08-24T15:18:59;95741.06;;;20.55;100.00
71956;BME280;59829;50.562;6.258;2023-08-24T15:29:14;95688.22;;;20.54;100.00
71956;BME280;59829;50.562;6.258;2023-08-24T15:39:15;95623.53;;;20.51;100.00
71956;BME280;59829;50.562;6.258;2023-08-24T15:49:16;95586.09;;;20.52;100.00
71956;BME280;59829;50.562;6.258;2023-08-24T15:59:17;95542.88;;;20.51;100.00
71956;BME280;59829;50.562;6.258;2023-08-24T16:09:18;95461.81;;;20.54;100.00
71956;BME280;59829;50.562;6.258;2023-08-24T16:19:18;95392.78;;;20.58;100.00
71956;BME280;59829;50.562;6.258;2023-08-24T16:29:18;95392.22;;;20.69;100.00
71956;BME280;59829;50.562;6.258;2023-08-24T16:39:19;95366.41;;;20.74;100.00
71956;BME280;59829;50.562;6.258;2023-08-24T16:49:19;95354.00;;;20.76;100.00
71956;BME280;59829;50.562;6.258;2023-08-24T16:59:20;95351.19;;;20.71;100.00
71956;BME280;59829;50.562;6.258;2023-08-24T17:09:20;95355.00;;;20.75;100.00
71956;BME280;59829;50.562;6.258;2023-08-24T17:19:21;95331.16;;;20.78;100.00
71956;BME280;59829;50.562;6.258;2023-08-24T17:29:22;95353.59;;;20.80;100.00
71956;BME280;59829;50.562;6.258;2023-08-24T17:39:22;95367.00;;;20.76;100.00
71956;BME280;59829;50.562;6.258;2023-08-24T17:49:22;95356.00;;;20.74;100.00
71956;BME280;59829;50.562;6.258;2023-08-24T17:59:23;95347.38;;;20.81;100.00
71956;BME280;59829;50.562;6.258;2023-08-24T18:09:23;95348.03;;;20.83;100.00
71956;BME280;59829;50.562;6.258;2023-08-24T18:19:23;95347.03;;;20.84;100.00
71956;BME280;59829;50.562;6.258;2023-08-24T18:29:24;95359.59;;;20.73;100.00
71956;BME280;59829;50.562;6.258;2023-08-24T18:39:24;95342.72;;;20.56;100.00
71956;BME280;59829;50.562;6.258;2023-08-24T18:49:24;95330.25;;;20.45;100.00
71956;BME280;59829;50.562;6.258;2023-08-24T18:59:25;95338.22;;;20.37;100.00
71956;BME280;59829;50.562;6.258;2023-08-24T19:09:25;95344.22;;;20.31;100.00
71956;BME280;59829;50.562;6.258;2023-08-24T19:19:25;95344.16;;;20.24;100.00
71956;BME280;59829;50.562;6.258;2023-08-24T19:29:26;95327.28;;;20.07;100.00
71956;BME280;59829;50.562;6.258;2023-08-24T19:39:26;95308.06;;;20.01;100.00
71956;BME280;59829;50.562;6.258;2023-08-24T19:49:26;95312.38;;;19.87;100.00
71956;BME280;59829;50.562;6.258;2023-08-24T19:59:27;95318.47;;;19.73;100.00
71956;BME280;59829;50.562;6.258;2023-08-24T20:09:27;95330.66;;;19.73;100.00
71956;BME280;59829;50.562;6.258;2023-08-24T20:19:27;95334.66;;;19.69;100.00
71956;BME280;59829;50.562;6.258;2023-08-24T20:29:28;95346.56;;;19.56;100.00
71956;BME280;59829;50.562;6.258;2023-08-24T20:39:29;95352.84;;;19.47;100.00
71956;BME280;59829;50.562;6.258;2023-08-24T20:49:31;95349.16;;;19.35;100.00
71956;BME280;59829;50.562;6.258;2023-08-24T20:59:31;95348.50;;;19.26;100.00
71956;BME280;59829;50.562;6.258;2023-08-24T21:09:31;95353.00;;;19.18;100.00
71956;BME280;59829;50.562;6.258;2023-08-24T21:19:31;95353.38;;;19.15;100.00
71956;BME280;59829;50.562;6.258;2023-08-24T21:29:32;95381.31;;;19.13;100.00
71956;BME280;59829;50.562;6.258;2023-08-24T21:39:33;95403.69;;;19.14;100.00
71956;BME280;59829;50.562;6.258;2023-08-24T21:49:33;95440.06;;;19.14;100.00
71956;BME280;59829;50.562;6.258;2023-08-24T21:59:34;95421.75;;;19.22;100.00
71956;BME280;59829;50.562;6.258;2023-08-24T22:09:34;95408.69;;;19.37;100.00
71956;BME280;59829;50.562;6.258;2023-08-24T22:19:34;95419.53;;;19.40;100.00
71956;BME280;59829;50.562;6.258;2023-08-24T22:29:36;95426.69;;;19.38;100.00
71956;BME280;59829;50.562;6.258;2023-08-24T22:39:36;95430.66;;;19.34;100.00
71956;BME280;59829;50.562;6.258;2023-08-24T22:49:36;95401.97;;;19.21;100.00
71956;BME280;59829;50.562;6.258;2023-08-24T22:59:36;95395.59;;;19.02;100.00
71956;BME280;59829;50.562;6.258;2023-08-24T23:09:37;95405.63;;;18.90;100.00
71956;BME280;59829;50.562;6.258;2023-08-24T23:19:37;95387.34;;;18.77;100.00
71956;BME280;59829;50.562;6.258;2023-08-24T23:29:37;95371.88;;;18.69;100.00
71956;BME280;59829;50.562;6.258;2023-08-24T23:39:38;95345.13;;;18.54;100.00
71956;BME280;59829;50.562;6.258;2023-08-24T23:49:38;95316.72;;;18.46;100.00
71956;BME280;59829;50.562;6.258;2023-08-24T23:59:38;95309.03;;;18.37;100.00
